sensor_id;sensor_type;location;lat;lon;timestamp;pressure;altitude;pressure_sealevel;temperature;humidity
74790;BME280;63318;52.406;13.416;2023-11-22T00:01:23;102195.12;;;0.24;83.06
74790;BME280;63318;52.406;13.416;2023-11-22T00:03:51;102204.03;;;0.22;83.00
74790;BME280;63318;52.406;13.416;2023-11-22T00:06:19;102205.12;;;0.21;82.86
74790;BME280;63318;52.406;13.416;2023-11-22T00:08:48;102200.77;;;0.19;83.11
74790;BME280;63318;52.406;13.416;2023-11-22T00:11:16;102197.58;;;0.18;82.89
74790;BME280;63318;52.406;13.416;2023-11-22T00:13:44;102201.58;;;0.17;83.03
74790;BME280;63318;52.406;13.416;2023-11-22T00:16:12;102207.08;;;0.17;82.81
74790;BME280;63318;52.406;13.416;2023-11-22T00:18:41;102210.89;;;0.15;82.66
74790;BME280;63318;52.406;13.416;2023-11-22T00:21:09;102217.67;;;0.14;82.92
74790;BME280;63318;52.406;13.416;2023-11-22T00:23:37;102221.27;;;0.14;82.97
74790;BME280;63318;52.406;13.416;2023-11-22T00:26:05;102231.04;;;0.12;83.04
74790;BME280;63318;52.406;13.416;2023-11-22T00:28:34;102235.35;;;0.11;83.22
74790;BME280;63318;52.406;13.416;2023-11-22T00:31:02;102239.78;;;0.11;82.94
74790;BME280;63318;52.406;13.416;2023-11-22T00:33:30;102244.96;;;0.10;83.37
74790;BME280;63318;52.406;13.416;2023-11-22T00:35:59;102249.85;;;0.10;83.15
74790;BME280;63318;52.406;13.416;2023-11-22T00:38:27;102254.88;;;0.11;83.11
74790;BME280;63318;52.406;13.416;2023-11-22T00:40:55;102252.25;;;0.12;82.77
74790;BME280;63318;52.406;13.416;2023-11-22T00:43:23;102255.41;;;0.13;83.04
74790;BME280;63318;52.406;13.416;2023-11-22T00:45:51;102255.80;;;0.14;83.08
74790;BME280;63318;52.406;13.416;2023-11-22T00:48:20;102256.04;;;0.15;82.90
74790;BME280;63318;52.406;13.416;2023-11-22T00:50:48;102254.85;;;0.16;82.93
74790;BME280;63318;52.406;13.416;2023-11-22T00:53:16;102252.97;;;0.17;82.91
74790;BME280;63318;52.406;13.416;2023-11-22T00:55:45;102265.87;;;0.18;83.19
74790;BME280;63318;52.406;13.416;2023-11-22T00:58:13;102268.49;;;0.19;82.79
74790;BME280;63318;52.406;13.416;2023-11-22T01:00:41;102273.08;;;0.21;82.59
74790;BME280;63318;52.406;13.416;2023-11-22T01:03:09;102271.14;;;0.22;82.88
74790;BME280;63318;52.406;13.416;2023-11-22T01:05:37;102269.38;;;0.23;83.24
74790;BME280;63318;52.406;13.416;2023-11-22T01:08:06;102265.27;;;0.24;83.08
74790;BME280;63318;52.406;13.416;2023-11-22T01:10:34;102276.44;;;0.25;82.63
74790;BME280;63318;52.406;13.416;2023-11-22T01:13:02;102286.33;;;0.26;82.66
74790;BME280;63318;52.406;13.416;2023-11-22T01:15:31;102286.55;;;0.27;82.95
74790;BME280;63318;52.406;13.416;2023-11-22T01:17:59;102282.33;;;0.28;82.82
74790;BME280;63318;52.406;13.416;2023-11-22T01:20:27;102280.56;;;0.29;82.91
74790;BME280;63318;52.406;13.416;2023-11-22T01:22:55;102279.05;;;0.29;82.67
74790;BME280;63318;52.406;13.416;2023-11-22T01:25:23;102284.39;;;0.29;82.83
74790;BME280;63318;52.406;13.416;2023-11-22T01:27:52;102281.60;;;0.29;82.81
74790;BME280;63318;52.406;13.416;2023-11-22T01:30:20;102278.42;;;0.28;82.75
74790;BME280;63318;52.406;13.416;2023-11-22T01:32:48;102277.93;;;0.26;82.72
74790;BME280;63318;52.406;13.416;2023-11-22T01:35:16;102282.20;;;0.24;82.53
74790;BME280;63318;52.406;13.416;2023-11-22T01:37:45;102282.02;;;0.22;82.57
74790;BME280;63318;52.406;13.416;2023-11-22T01:40:14;102280.98;;;0.20;82.58
74790;BME280;63318;52.406;13.416;2023-11-22T01:42:42;102280.27;;;0.18;82.69
74790;BME280;63318;52.406;13.416;2023-11-22T01:45:11;102275.36;;;0.15;82.68
74790;BME280;63318;52.406;13.416;2023-11-22T01:47:40;102280.68;;;0.13;82.53
74790;BME280;63318;52.406;13.416;2023-11-22T01:50:10;102282.23;;;0.11;82.35
74790;BME280;63318;52.406;13.416;2023-11-22T01:52:38;102279.14;;;0.07;82.87
74790;BME280;63318;52.406;13.416;2023-11-22T01:55:09;102278.73;;;0.06;82.53
74790;BME280;63318;52.406;13.416;2023-11-22T01:57:38;102279.64;;;0.03;82.43
74790;BME280;63318;52.406;13.416;2023-11-22T02:00:09;102284.11;;;0.00;82.34
74790;BME280;63318;52.406;13.416;2023-11-22T02:02:37;102289.98;;;-0.02;82.37
74790;BME280;63318;52.406;13.416;2023-11-22T02:05:06;102292.56;;;-0.04;82.54
74790;BME280;63318;52.406;13.416;2023-11-22T02:07:34;102290.83;;;-0.07;82.67
74790;BME280;63318;52.406;13.416;2023-11-22T02:10:05;102292.09;;;-0.10;82.51
74790;BME280;63318;52.406;13.416;2023-11-22T02:12:33;102293.30;;;-0.13;82.48
74790;BME280;63318;52.406;13.416;2023-11-22T02:15:02;102292.35;;;-0.15;82.33
74790;BME280;63318;52.406;13.416;2023-11-22T02:17:30;102303.73;;;-0.18;82.25
74790;BME280;63318;52.406;13.416;2023-11-22T02:19:59;102313.45;;;-0.20;81.72
74790;BME280;63318;52.406;13.416;2023-11-22T02:22:27;102315.66;;;-0.22;82.04
74790;BME280;63318;52.406;13.416;2023-11-22T02:24:55;102314.95;;;-0.24;82.05
74790;BME280;63318;52.406;13.416;2023-11-22T02:27:23;102310.98;;;-0.26;82.36
74790;BME280;63318;52.406;13.416;2023-11-22T02:29:52;102308.85;;;-0.28;82.19
74790;BME280;63318;52.406;13.416;2023-11-22T02:32:20;102305.39;;;-0.30;81.88
74790;BME280;63318;52.406;13.416;2023-11-22T02:34:48;102306.57;;;-0.30;82.28
74790;BME280;63318;52.406;13.416;2023-11-22T02:37:16;102307.23;;;-0.31;82.18
74790;BME280;63318;52.406;13.416;2023-11-22T02:39:51;102318.22;;;-0.34;82.02
74790;BME280;63318;52.406;13.416;2023-11-22T02:42:22;102327.55;;;-0.37;82.27
74790;BME280;63318;52.406;13.416;2023-11-22T02:44:52;102330.77;;;-0.42;81.88
74790;BME280;63318;52.406;13.416;2023-11-22T02:47:20;102336.55;;;-0.45;82.15
74790;BME280;63318;52.406;13.416;2023-11-22T02:49:48;102341.59;;;-0.48;81.60
74790;BME280;63318;52.406;13.416;2023-11-22T02:52:16;102346.34;;;-0.49;81.56
74790;BME280;63318;52.406;13.416;2023-11-22T02:54:45;102347.54;;;-0.52;81.48
74790;BME280;63318;52.406;13.416;2023-11-22T02:57:13;102356.29;;;-0.56;81.59
74790;BME280;63318;52.406;13.416;2023-11-22T02:59:43;102366.60;;;-0.59;81.51
74790;BME280;63318;52.406;13.416;2023-11-22T03:02:12;102369.73;;;-0.61;81.44
74790;BME280;63318;52.406;13.416;2023-11-22T03:04:40;102374.15;;;-0.63;81.60
74790;BME280;63318;52.406;13.416;2023-11-22T03:07:08;102377.67;;;-0.65;81.12
74790;BME280;63318;52.406;13.416;2023-11-22T03:09:37;102388.45;;;-0.67;81.23
74790;BME280;63318;52.406;13.416;2023-11-22T03:12:06;102401.25;;;-0.70;81.40
74790;BME280;63318;52.406;13.416;2023-11-22T03:14:34;102406.87;;;-0.72;80.94
74790;BME280;63318;52.406;13.416;2023-11-22T03:17:03;102403.25;;;-0.74;81.19
74790;BME280;63318;52.406;13.416;2023-11-22T03:19:31;102404.63;;;-0.76;80.71
74790;BME280;63318;52.406;13.416;2023-11-22T03:22:00;102417.11;;;-0.79;80.69
74790;BME280;63318;52.406;13.416;2023-11-22T03:24:28;102426.95;;;-0.81;80.59
74790;BME280;63318;52.406;13.416;2023-11-22T03:26:56;102425.60;;;-0.84;80.59
74790;BME280;63318;52.406;13.416;2023-11-22T03:29:25;102417.71;;;-0.86;80.43
74790;BME280;63318;52.406;13.416;2023-11-22T03:31:53;102416.02;;;-0.89;80.49
74790;BME280;63318;52.406;13.416;2023-11-22T03:34:22;102422.71;;;-0.91;80.74
74790;BME280;63318;52.406;13.416;2023-11-22T03:36:50;102431.35;;;-0.93;80.50
74790;BME280;63318;52.406;13.416;2023-11-22T03:39:18;102436.86;;;-0.96;80.47
74790;BME280;63318;52.406;13.416;2023-11-22T03:41:47;102439.30;;;-0.98;80.49
74790;BME280;63318;52.406;13.416;2023-11-22T03:44:15;102443.84;;;-1.00;80.58
74790;BME280;63318;52.406;13.416;2023-11-22T03:46:44;102452.04;;;-1.02;80.47
74790;BME280;63318;52.406;13.416;2023-11-22T03:49:12;102451.45;;;-1.03;80.15
74790;BME280;63318;52.406;13.416;2023-11-22T03:51:42;102438.98;;;-1.05;80.59
74790;BME280;63318;52.406;13.416;2023-11-22T03:54:10;102431.16;;;-1.07;80.55
74790;BME280;63318;52.406;13.416;2023-11-22T03:56:38;102433.47;;;-1.08;80.64
74790;BME280;63318;52.406;13.416;2023-11-22T03:59:07;102428.39;;;-1.10;80.67
74790;BME280;63318;52.406;13.416;2023-11-22T04:01:35;102425.33;;;-1.12;80.45
74790;BME280;63318;52.406;13.416;2023-11-22T04:04:04;102424.02;;;-1.15;80.65
74790;BME280;63318;52.406;13.416;2023-11-22T04:06:32;102424.98;;;-1.17;80.38
74790;BME280;63318;52.406;13.416;2023-11-22T04:09:00;102423.86;;;-1.21;80.51
74790;BME280;63318;52.406;13.416;2023-11-22T04:11:28;102434.42;;;-1.23;80.49
74790;BME280;63318;52.406;13.416;2023-11-22T04:13:57;102441.69;;;-1.26;80.84
74790;BME280;63318;52.406;13.416;2023-11-22T04:16:25;102454.34;;;-1.29;80.73
74790;BME280;63318;52.406;13.416;2023-11-22T04:18:54;102460.88;;;-1.32;80.65
74790;BME280;63318;52.406;13.416;2023-11-22T04:21:22;102468.13;;;-1.36;80.91
74790;BME280;63318;52.406;13.416;2023-11-22T04:23:50;102467.42;;;-1.39;80.61
74790;BME280;63318;52.406;13.416;2023-11-22T04:26:18;102463.13;;;-1.42;80.86
74790;BME280;63318;52.406;13.416;2023-11-22T04:28:47;102459.73;;;-1.45;80.91
74790;BME280;63318;52.406;13.416;2023-11-22T04:31:15;102459.52;;;-1.46;80.73
74790;BME280;63318;52.406;13.416;2023-11-22T04:33:43;102453.16;;;-1.48;81.20
74790;BME280;63318;52.406;13.416;2023-11-22T04:36:12;102456.09;;;-1.50;81.11
74790;BME280;63318;52.406;13.416;2023-11-22T04:38:40;102459.73;;;-1.52;81.02
74790;BME280;63318;52.406;13.416;2023-11-22T04:41:08;102466.75;;;-1.53;81.05
74790;BME280;63318;52.406;13.416;2023-11-22T04:43:37;102473.10;;;-1.55;81.55
74790;BME280;63318;52.406;13.416;2023-11-22T04:46:05;102479.05;;;-1.56;80.92
74790;BME280;63318;52.406;13.416;2023-11-22T04:48:34;102484.27;;;-1.57;81.28
74790;BME280;63318;52.406;13.416;2023-11-22T04:51:02;102485.17;;;-1.59;81.39
74790;BME280;63318;52.406;13.416;2023-11-22T04:53:30;102496.06;;;-1.61;81.28
74790;BME280;63318;52.406;13.416;2023-11-22T04:55:58;102508.23;;;-1.63;81.33
74790;BME280;63318;52.406;13.416;2023-11-22T04:58:27;102512.30;;;-1.63;81.47
74790;BME280;63318;52.406;13.416;2023-11-22T05:00:55;102521.31;;;-1.65;81.53
74790;BME280;63318;52.406;13.416;2023-11-22T05:03:24;102530.46;;;-1.65;81.49
74790;BME280;63318;52.406;13.416;2023-11-22T05:05:53;102535.59;;;-1.66;81.44
74790;BME280;63318;52.406;13.416;2023-11-22T05:08:21;102541.50;;;-1.67;81.56
74790;BME280;63318;52.406;13.416;2023-11-22T05:10:49;102543.91;;;-1.67;81.35
74790;BME280;63318;52.406;13.416;2023-11-22T05:13:18;102543.70;;;-1.67;81.64
74790;BME280;63318;52.406;13.416;2023-11-22T05:15:46;102549.15;;;-1.67;81.71
74790;BME280;63318;52.406;13.416;2023-11-22T05:18:14;102546.33;;;-1.68;81.75
74790;BME280;63318;52.406;13.416;2023-11-22T05:20:42;102540.08;;;-1.69;81.64
74790;BME280;63318;52.406;13.416;2023-11-22T05:23:11;102542.23;;;-1.70;81.52
74790;BME280;63318;52.406;13.416;2023-11-22T05:25:39;102555.58;;;-1.71;81.69
74790;BME280;63318;52.406;13.416;2023-11-22T05:28:07;102553.87;;;-1.72;81.38
74790;BME280;63318;52.406;13.416;2023-11-22T05:30:35;102551.13;;;-1.74;81.37
74790;BME280;63318;52.406;13.416;2023-11-22T05:33:04;102554.27;;;-1.74;81.21
74790;BME280;63318;52.406;13.416;2023-11-22T05:35:32;102555.31;;;-1.76;81.51
74790;BME280;63318;52.406;13.416;2023-11-22T05:38:00;102559.02;;;-1.78;81.57
74790;BME280;63318;52.406;13.416;2023-11-22T05:40:29;102562.15;;;-1.81;81.44
74790;BME280;63318;52.406;13.416;2023-11-22T05:42:57;102567.45;;;-1.83;81.21
74790;BME280;63318;52.406;13.416;2023-11-22T05:45:25;102575.02;;;-1.86;81.43
74790;BME280;63318;52.406;13.416;2023-11-22T05:47:54;102579.59;;;-1.88;81.66
74790;BME280;63318;52.406;13.416;2023-11-22T05:50:22;102588.13;;;-1.90;81.36
74790;BME280;63318;52.406;13.416;2023-11-22T05:52:50;102594.55;;;-1.92;81.73
74790;BME280;63318;52.406;13.416;2023-11-22T05:55:19;102593.90;;;-1.95;81.43
74790;BME280;63318;52.406;13.416;2023-11-22T05:57:47;102581.76;;;-1.97;81.75
74790;BME280;63318;52.406;13.416;2023-11-22T06:00:16;102583.19;;;-1.99;81.80
74790;BME280;63318;52.406;13.416;2023-11-22T06:02:45;102582.54;;;-2.01;81.42
74790;BME280;63318;52.406;13.416;2023-11-22T06:05:13;102588.83;;;-2.04;81.45
74790;BME280;63318;52.406;13.416;2023-11-22T06:07:41;102589.66;;;-2.08;81.68
74790;BME280;63318;52.406;13.416;2023-11-22T06:10:10;102587.23;;;-2.11;81.56
74790;BME280;63318;52.406;13.416;2023-11-22T06:12:39;102585.19;;;-2.14;81.55
74790;BME280;63318;52.406;13.416;2023-11-22T06:15:09;102587.43;;;-2.17;81.40
74790;BME280;63318;52.406;13.416;2023-11-22T06:17:37;102592.21;;;-2.19;81.63
74790;BME280;63318;52.406;13.416;2023-11-22T06:20:08;102584.85;;;-2.22;81.67
74790;BME280;63318;52.406;13.416;2023-11-22T06:22:37;102588.60;;;-2.23;81.57
74790;BME280;63318;52.406;13.416;2023-11-22T06:25:07;102588.32;;;-2.26;81.95
74790;BME280;63318;52.406;13.416;2023-11-22T06:27:36;102589.73;;;-2.27;81.93
74790;BME280;63318;52.406;13.416;2023-11-22T06:30:06;102586.48;;;-2.29;81.95
74790;BME280;63318;52.406;13.416;2023-11-22T06:32:34;102586.25;;;-2.30;82.03
74790;BME280;63318;52.406;13.416;2023-11-22T06:35:03;102594.76;;;-2.32;82.04
74790;BME280;63318;52.406;13.416;2023-11-22T06:37:32;102597.81;;;-2.34;81.78
74790;BME280;63318;52.406;13.416;2023-11-22T06:40:00;102602.05;;;-2.36;82.14
74790;BME280;63318;52.406;13.416;2023-11-22T06:42:29;102605.36;;;-2.39;81.88
74790;BME280;63318;52.406;13.416;2023-11-22T06:44:57;102615.69;;;-2.41;82.10
74790;BME280;63318;52.406;13.416;2023-11-22T06:47:26;102629.90;;;-2.43;82.29
74790;BME280;63318;52.406;13.416;2023-11-22T06:49:54;102636.20;;;-2.45;82.28
74790;BME280;63318;52.406;13.416;2023-11-22T06:52:23;102644.71;;;-2.46;82.21
74790;BME280;63318;52.406;13.416;2023-11-22T06:54:51;102649.91;;;-2.47;82.44
74790;BME280;63318;52.406;13.416;2023-11-22T06:57:20;102662.14;;;-2.48;82.41
74790;BME280;63318;52.406;13.416;2023-11-22T06:59:48;102666.52;;;-2.51;82.61
74790;BME280;63318;52.406;13.416;2023-11-22T07:02:17;102676.28;;;-2.52;82.44
74790;BME280;63318;52.406;13.416;2023-11-22T07:04:45;102680.59;;;-2.53;82.67
74790;BME280;63318;52.406;13.416;2023-11-22T07:07:13;102675.83;;;-2.55;82.60
74790;BME280;63318;52.406;13.416;2023-11-22T07:09:44;102684.13;;;-2.56;82.51
74790;BME280;63318;52.406;13.416;2023-11-22T07:12:13;102699.96;;;-2.57;82.61
74790;BME280;63318;52.406;13.416;2023-11-22T07:14:42;102702.59;;;-2.58;82.69
74790;BME280;63318;52.406;13.416;2023-11-22T07:17:10;102703.55;;;-2.58;82.78
74790;BME280;63318;52.406;13.416;2023-11-22T07:19:40;102702.30;;;-2.59;82.88
74790;BME280;63318;52.406;13.416;2023-11-22T07:22:08;102704.48;;;-2.59;82.99
74790;BME280;63318;52.406;13.416;2023-11-22T07:24:37;102699.34;;;-2.58;83.25
74790;BME280;63318;52.406;13.416;2023-11-22T07:27:06;102701.54;;;-2.56;83.42
74790;BME280;63318;52.406;13.416;2023-11-22T07:29:34;102702.45;;;-2.57;83.19
74790;BME280;63318;52.406;13.416;2023-11-22T07:32:03;102701.48;;;-2.56;83.15
74790;BME280;63318;52.406;13.416;2023-11-22T07:34:31;102702.85;;;-2.55;83.24
74790;BME280;63318;52.406;13.416;2023-11-22T07:37:00;102705.55;;;-2.55;83.61
74790;BME280;63318;52.406;13.416;2023-11-22T07:39:29;102705.79;;;-2.54;83.50
74790;BME280;63318;52.406;13.416;2023-11-22T07:41:58;102703.64;;;-2.52;83.29
74790;BME280;63318;52.406;13.416;2023-11-22T07:44:27;102706.77;;;-2.51;83.09
74790;BME280;63318;52.406;13.416;2023-11-22T07:46:56;102711.20;;;-2.47;83.18
74790;BME280;63318;52.406;13.416;2023-11-22T07:49:24;102714.55;;;-2.44;83.07
74790;BME280;63318;52.406;13.416;2023-11-22T07:51:53;102723.50;;;-2.41;83.56
74790;BME280;63318;52.406;13.416;2023-11-22T07:54:22;102715.70;;;-2.38;83.37
74790;BME280;63318;52.406;13.416;2023-11-22T07:56:51;102715.37;;;-2.34;83.45
74790;BME280;63318;52.406;13.416;2023-11-22T07:59:21;102706.06;;;-2.29;83.21
74790;BME280;63318;52.406;13.416;2023-11-22T08:01:50;102696.27;;;-2.26;83.00
74790;BME280;63318;52.406;13.416;2023-11-22T08:04:18;102686.92;;;-2.21;83.07
74790;BME280;63318;52.406;13.416;2023-11-22T08:06:47;102679.70;;;-2.16;83.17
74790;BME280;63318;52.406;13.416;2023-11-22T08:09:16;102669.73;;;-2.10;82.85
74790;BME280;63318;52.406;13.416;2023-11-22T08:11:45;102673.36;;;-2.04;82.75
74790;BME280;63318;52.406;13.416;2023-11-22T08:14:14;102673.52;;;-1.98;82.49
74790;BME280;63318;52.406;13.416;2023-11-22T08:16:43;102668.96;;;-1.92;82.45
74790;BME280;63318;52.406;13.416;2023-11-22T08:19:11;102665.97;;;-1.86;82.30
74790;BME280;63318;52.406;13.416;2023-11-22T08:21:40;102666.95;;;-1.79;82.17
74790;BME280;63318;52.406;13.416;2023-11-22T08:24:09;102674.97;;;-1.72;82.23
74790;BME280;63318;52.406;13.416;2023-11-22T08:26:39;102682.12;;;-1.65;82.35
74790;BME280;63318;52.406;13.416;2023-11-22T08:29:07;102678.23;;;-1.59;82.37
74790;BME280;63318;52.406;13.416;2023-11-22T08:31:36;102677.15;;;-1.53;81.52
74790;BME280;63318;52.406;13.416;2023-11-22T08:34:05;102682.73;;;-1.48;81.74
74790;BME280;63318;52.406;13.416;2023-11-22T08:36:33;102691.52;;;-1.43;81.71
74790;BME280;63318;52.406;13.416;2023-11-22T08:39:02;102689.61;;;-1.38;81.51
74790;BME280;63318;52.406;13.416;2023-11-22T08:41:37;102693.36;;;-1.33;81.74
74790;BME280;63318;52.406;13.416;2023-11-22T08:44:07;102694.03;;;-1.29;81.11
74790;BME280;63318;52.406;13.416;2023-11-22T08:46:35;102698.75;;;-1.25;81.64
74790;BME280;63318;52.406;13.416;2023-11-22T08:49:04;102695.46;;;-1.22;81.02
74790;BME280;63318;52.406;13.416;2023-11-22T08:51:33;102689.77;;;-1.17;81.06
74790;BME280;63318;52.406;13.416;2023-11-22T08:54:02;102689.05;;;-1.14;80.71
74790;BME280;63318;52.406;13.416;2023-11-22T08:56:31;102685.66;;;-1.11;81.06
74790;BME280;63318;52.406;13.416;2023-11-22T08:59:00;102689.48;;;-1.07;80.77
74790;BME280;63318;52.406;13.416;2023-11-22T09:01:38;102700.27;;;-1.04;80.32
74790;BME280;63318;52.406;13.416;2023-11-22T09:04:07;102706.00;;;-1.01;80.54
74790;BME280;63318;52.406;13.416;2023-11-22T09:06:36;102710.63;;;-0.99;79.89
74790;BME280;63318;52.406;13.416;2023-11-22T09:09:04;102715.77;;;-0.96;79.80
74790;BME280;63318;52.406;13.416;2023-11-22T09:11:33;102722.31;;;-0.92;79.91
74790;BME280;63318;52.406;13.416;2023-11-22T09:14:02;102729.27;;;-0.89;80.12
74790;BME280;63318;52.406;13.416;2023-11-22T09:16:37;102730.64;;;-0.85;79.86
74790;BME280;63318;52.406;13.416;2023-11-22T09:19:06;102721.47;;;-0.80;79.49
74790;BME280;63318;52.406;13.416;2023-11-22T09:21:37;102716.10;;;-0.77;79.63
74790;BME280;63318;52.406;13.416;2023-11-22T09:24:07;102718.89;;;-0.74;79.54
74790;BME280;63318;52.406;13.416;2023-11-22T09:26:37;102711.20;;;-0.72;79.48
74790;BME280;63318;52.406;13.416;2023-11-22T09:29:08;102711.33;;;-0.70;79.04
74790;BME280;63318;52.406;13.416;2023-11-22T09:31:38;102695.44;;;-0.67;79.10
74790;BME280;63318;52.406;13.416;2023-11-22T09:34:07;102688.46;;;-0.64;79.25
74790;BME280;63318;52.406;13.416;2023-11-22T09:36:36;102687.50;;;-0.62;79.34
74790;BME280;63318;52.406;13.416;2023-11-22T09:39:05;102666.83;;;-0.59;79.09
74790;BME280;63318;52.406;13.416;2023-11-22T09:41:33;102669.23;;;-0.56;79.28
74790;BME280;63318;52.406;13.416;2023-11-22T09:44:03;102675.38;;;-0.52;78.61
74790;BME280;63318;52.406;13.416;2023-11-22T09:46:33;102671.66;;;-0.48;78.67
74790;BME280;63318;52.406;13.416;2023-11-22T09:49:04;102670.78;;;-0.43;78.64
74790;BME280;63318;52.406;13.416;2023-11-22T09:51:39;102663.59;;;-0.39;78.91
74790;BME280;63318;52.406;13.416;2023-11-22T09:54:09;102660.95;;;-0.34;78.75
74790;BME280;63318;52.406;13.416;2023-11-22T09:56:38;102656.11;;;-0.30;78.79
74790;BME280;63318;52.406;13.416;2023-11-22T09:59:08;102649.30;;;-0.25;78.93
74790;BME280;63318;52.406;13.416;2023-11-22T10:01:37;102648.66;;;-0.21;78.93
74790;BME280;63318;52.406;13.416;2023-11-22T10:04:06;102660.59;;;-0.15;78.73
74790;BME280;63318;52.406;13.416;2023-11-22T10:06:37;102667.31;;;-0.10;78.50
74790;BME280;63318;52.406;13.416;2023-11-22T10:09:06;102676.30;;;-0.05;78.51
74790;BME280;63318;52.406;13.416;2023-11-22T10:11:35;102691.71;;;0.01;78.14
74790;BME280;63318;52.406;13.416;2023-11-22T10:14:03;102697.80;;;0.06;78.31
74790;BME280;63318;52.406;13.416;2023-11-22T10:16:32;102708.73;;;0.11;78.54
74790;BME280;63318;52.406;13.416;2023-11-22T10:19:00;102707.99;;;0.16;78.33
74790;BME280;63318;52.406;13.416;2023-11-22T10:21:29;102692.71;;;0.21;77.63
74790;BME280;63318;52.406;13.416;2023-11-22T10:24:04;102690.78;;;0.27;78.35
74790;BME280;63318;52.406;13.416;2023-11-22T10:26:35;102691.30;;;0.33;77.82
74790;BME280;63318;52.406;13.416;2023-11-22T10:29:04;102691.88;;;0.39;77.81
74790;BME280;63318;52.406;13.416;2023-11-22T10:31:33;102697.46;;;0.45;77.27
74790;BME280;63318;52.406;13.416;2023-11-22T10:34:02;102707.95;;;0.51;77.27
74790;BME280;63318;52.406;13.416;2023-11-22T10:36:31;102709.09;;;0.56;77.07
74790;BME280;63318;52.406;13.416;2023-11-22T10:38:59;102708.81;;;0.60;76.75
74790;BME280;63318;52.406;13.416;2023-11-22T10:41:33;102707.20;;;0.65;76.96
74790;BME280;63318;52.406;13.416;2023-11-22T10:44:07;102699.60;;;0.69;76.90
74790;BME280;63318;52.406;13.416;2023-11-22T10:46:38;102699.58;;;0.73;76.91
74790;BME280;63318;52.406;13.416;2023-11-22T10:49:08;102697.17;;;0.75;76.93
74790;BME280;63318;52.406;13.416;2023-11-22T10:51:39;102701.81;;;0.78;76.89
74790;BME280;63318;52.406;13.416;2023-11-22T10:54:09;102707.46;;;0.82;76.58
74790;BME280;63318;52.406;13.416;2023-11-22T10:56:40;102708.52;;;0.84;76.16
74790;BME280;63318;52.406;13.416;2023-11-22T10:59:14;102710.20;;;0.86;76.11
74790;BME280;63318;52.406;13.416;2023-11-22T11:01:48;102714.21;;;0.90;76.05
74790;BME280;63318;52.406;13.416;2023-11-22T11:04:23;102710.34;;;0.94;75.92
74790;BME280;63318;52.406;13.416;2023-11-22T11:06:56;102707.04;;;0.97;76.12
74790;BME280;63318;52.406;13.416;2023-11-22T11:09:25;102712.29;;;0.99;75.83
74790;BME280;63318;52.406;13.416;2023-11-22T11:11:55;102707.37;;;1.01;75.92
74790;BME280;63318;52.406;13.416;2023-11-22T11:14:24;102705.48;;;1.03;75.64
74790;BME280;63318;52.406;13.416;2023-11-22T11:16:56;102700.59;;;1.06;75.55
74790;BME280;63318;52.406;13.416;2023-11-22T11:19:25;102700.02;;;1.10;74.98
74790;BME280;63318;52.406;13.416;2023-11-22T11:21:55;102689.58;;;1.13;74.79
74790;BME280;63318;52.406;13.416;2023-11-22T11:24:24;102689.00;;;1.17;74.61
74790;BME280;63318;52.406;13.416;2023-11-22T11:26:53;102683.98;;;1.21;74.71
74790;BME280;63318;52.406;13.416;2023-11-22T11:29:42;102680.41;;;1.25;74.89
74790;BME280;63318;52.406;13.416;2023-11-22T11:32:17;102684.43;;;1.30;74.11
74790;BME280;63318;52.406;13.416;2023-11-22T11:34:58;102685.55;;;1.35;74.15
74790;BME280;63318;52.406;13.416;2023-11-22T11:37:31;102686.92;;;1.39;74.16
74790;BME280;63318;52.406;13.416;2023-11-22T11:40:00;102676.90;;;1.42;74.79
74790;BME280;63318;52.406;13.416;2023-11-22T11:42:30;102660.41;;;1.45;74.77
74790;BME280;63318;52.406;13.416;2023-11-22T11:45:13;102645.40;;;1.47;74.50
74790;BME280;63318;52.406;13.416;2023-11-22T11:47:42;102639.82;;;1.49;73.95
74790;BME280;63318;52.406;13.416;2023-11-22T11:50:11;102641.88;;;1.51;75.01
74790;BME280;63318;52.406;13.416;2023-11-22T11:52:42;102649.42;;;1.50;74.10
74790;BME280;63318;52.406;13.416;2023-11-22T11:55:12;102633.47;;;1.51;73.96
74790;BME280;63318;52.406;13.416;2023-11-22T11:57:55;102628.49;;;1.53;74.32
74790;BME280;63318;52.406;13.416;2023-11-22T12:00:25;102619.59;;;1.54;74.11
74790;BME280;63318;52.406;13.416;2023-11-22T12:02:54;102611.04;;;1.55;74.40
74790;BME280;63318;52.406;13.416;2023-11-22T12:05:23;102604.95;;;1.56;74.59
74790;BME280;63318;52.406;13.416;2023-11-22T12:07:52;102598.96;;;1.56;74.26
74790;BME280;63318;52.406;13.416;2023-11-22T12:10:23;102599.89;;;1.57;74.34
74790;BME280;63318;52.406;13.416;2023-11-22T12:12:52;102594.52;;;1.58;74.07
74790;BME280;63318;52.406;13.416;2023-11-22T12:15:22;102588.96;;;1.58;73.86
74790;BME280;63318;52.406;13.416;2023-11-22T12:17:58;102583.36;;;1.60;74.30
74790;BME280;63318;52.406;13.416;2023-11-22T12:20:30;102571.64;;;1.60;73.45
74790;BME280;63318;52.406;13.416;2023-11-22T12:23:00;102574.55;;;1.62;73.42
74790;BME280;63318;52.406;13.416;2023-11-22T12:25:31;102570.75;;;1.63;73.34
74790;BME280;63318;52.406;13.416;2023-11-22T12:28:00;102560.20;;;1.64;73.63
74790;BME280;63318;52.406;13.416;2023-11-22T12:30:32;102551.44;;;1.66;73.96
74790;BME280;63318;52.406;13.416;2023-11-22T12:33:06;102536.98;;;1.64;73.53
74790;BME280;63318;52.406;13.416;2023-11-22T12:35:36;102528.88;;;1.63;73.03
74790;BME280;63318;52.406;13.416;2023-11-22T12:38:06;102532.30;;;1.62;73.27
74790;BME280;63318;52.406;13.416;2023-11-22T12:40:34;102538.61;;;1.61;72.85
74790;BME280;63318;52.406;13.416;2023-11-22T12:43:03;102538.34;;;1.62;72.92
74790;BME280;63318;52.406;13.416;2023-11-22T12:45:33;102526.80;;;1.62;73.20
74790;BME280;63318;52.406;13.416;2023-11-22T12:48:21;102534.95;;;1.65;73.27
74790;BME280;63318;52.406;13.416;2023-11-22T12:50:50;102555.11;;;1.64;73.30
74790;BME280;63318;52.406;13.416;2023-11-22T12:53:20;102575.27;;;1.65;73.03